sensor_id;sensor_type;location;lat;lon;timestamp;pressure;altitude;pressure_sealevel;temperature;humidity
59240;BME280;45010;53.640;10.578;2022-09-09T00:01:38;100227.25;;;26.41;40.63
59240;BME280;45010;53.640;10.578;2022-09-09T00:04:48;100217.56;;;26.35;40.72
59240;BME280;45010;53.640;10.578;2022-09-09T00:07:55;100228.28;;;26.40;40.67
59240;BME280;45010;53.640;10.578;2022-09-09T00:11:01;100221.84;;;26.36;40.76
59240;BME280;45010;53.640;10.578;2022-09-09T00:14:11;100219.22;;;26.41;40.94
59240;BME280;45010;53.640;10.578;2022-09-09T00:17:36;100209.03;;;26.38;40.63
59240;BME280;45010;53.640;10.578;2022-09-09T00:20:49;100209.56;;;26.35;40.86
59240;BME280;45010;53.640;10.578;2022-09-09T00:23:54;100197.22;;;26.34;40.62
59240;BME280;45010;53.640;10.578;2022-09-09T00:27:04;100210.13;;;26.42;40.78
59240;BME280;45010;53.640;10.578;2022-09-09T00:30:17;100214.91;;;26.40;41.08
59240;BME280;45010;53.640;10.578;2022-09-09T00:33:23;100213.88;;;26.41;40.73
59240;BME280;45010;53.640;10.578;2022-09-09T00:36:26;100198.88;;;26.35;40.64
59240;BME280;45010;53.640;10.578;2022-09-09T00:39:34;100205.81;;;26.36;40.72
59240;BME280;45010;53.640;10.578;2022-09-09T00:42:41;100210.13;;;26.42;40.93
59240;BME280;45010;53.640;10.578;2022-09-09T00:49:21;100206.91;;;26.40;40.59
59240;BME280;45010;53.640;10.578;2022-09-09T00:52:36;100200.97;;;26.33;40.63
59240;BME280;45010;53.640;10.578;2022-09-09T00:55:48;100210.88;;;26.38;40.53
59240;BME280;45010;53.640;10.578;2022-09-09T01:06:20;100207.34;;;26.27;40.68
59240;BME280;45010;53.640;10.578;2022-09-09T01:09:57;100200.38;;;26.26;40.93
59240;BME280;45010;53.640;10.578;2022-09-09T01:13:01;100206.22;;;26.23;40.58
59240;BME280;45010;53.640;10.578;2022-09-09T01:16:08;100197.59;;;26.15;40.97
59240;BME280;45010;53.640;10.578;2022-09-09T01:19:20;100196.28;;;26.18;40.51
59240;BME280;45010;53.640;10.578;2022-09-09T01:22:49;100205.59;;;26.15;40.90
59240;BME280;45010;53.640;10.578;2022-09-09T01:29:13;100195.94;;;26.09;40.68
59240;BME280;45010;53.640;10.578;2022-09-09T01:35:54;100189.75;;;26.03;40.94
59240;BME280;45010;53.640;10.578;2022-09-09T01:38:57;100184.13;;;26.00;41.02
59240;BME280;45010;53.640;10.578;2022-09-09T01:41:58;100189.69;;;25.98;40.87
59240;BME280;45010;53.640;10.578;2022-09-09T01:44:58;100191.00;;;25.96;40.79
59240;BME280;45010;53.640;10.578;2022-09-09T01:47:59;100186.19;;;25.92;41.22
59240;BME280;45010;53.640;10.578;2022-09-09T01:50:59;100189.91;;;25.91;41.21
59240;BME280;45010;53.640;10.578;2022-09-09T01:54:00;100184.00;;;25.89;41.16
59240;BME280;45010;53.640;10.578;2022-09-09T01:57:23;100186.38;;;25.86;41.19
59240;BME280;45010;53.640;10.578;2022-09-09T02:00:25;100182.31;;;25.78;41.37
59240;BME280;45010;53.640;10.578;2022-09-09T02:03:28;100187.09;;;25.76;41.27
59240;BME280;45010;53.640;10.578;2022-09-09T02:06:37;100178.22;;;25.70;41.20
59240;BME280;45010;53.640;10.578;2022-09-09T02:09:40;100185.97;;;25.72;41.33
59240;BME280;45010;53.640;10.578;2022-09-09T02:12:46;100194.53;;;25.74;41.36
59240;BME280;45010;53.640;10.578;2022-09-09T02:16:07;100200.16;;;25.72;41.40
59240;BME280;45010;53.640;10.578;2022-09-09T02:19:24;100200.41;;;25.71;41.51
59240;BME280;45010;53.640;10.578;2022-09-09T02:22:27;100187.53;;;25.68;41.53
59240;BME280;45010;53.640;10.578;2022-09-09T02:25:30;100183.72;;;25.58;41.38
59240;BME280;45010;53.640;10.578;2022-09-09T02:28:34;100178.22;;;25.48;41.56
59240;BME280;45010;53.640;10.578;2022-09-09T02:31:36;100177.81;;;25.56;41.33
59240;BME280;45010;53.640;10.578;2022-09-09T02:34:42;100178.31;;;25.53;41.76
59240;BME280;45010;53.640;10.578;2022-09-09T02:37:44;100195.38;;;25.52;41.74
59240;BME280;45010;53.640;10.578;2022-09-09T02:40:46;100188.50;;;25.56;41.80
59240;BME280;45010;53.640;10.578;2022-09-09T02:43:47;100175.44;;;25.37;41.64
59240;BME280;45010;53.640;10.578;2022-09-09T02:50:13;100179.53;;;25.45;41.86
59240;BME280;45010;53.640;10.578;2022-09-09T02:56:55;100199.84;;;25.46;41.73
59240;BME280;45010;53.640;10.578;2022-09-09T03:00:00;100189.38;;;25.39;41.91
59240;BME280;45010;53.640;10.578;2022-09-09T03:03:03;100195.00;;;25.43;41.83
59240;BME280;45010;53.640;10.578;2022-09-09T03:06:04;100200.59;;;25.42;41.73
59240;BME280;45010;53.640;10.578;2022-09-09T03:09:05;100195.19;;;25.36;41.65
59240;BME280;45010;53.640;10.578;2022-09-09T03:12:06;100188.53;;;25.39;41.83
59240;BME280;45010;53.640;10.578;2022-09-09T03:15:07;100196.56;;;25.39;41.72
59240;BME280;45010;53.640;10.578;2022-09-09T03:18:08;100202.13;;;25.37;42.06
59240;BME280;45010;53.640;10.578;2022-09-09T03:21:08;100200.53;;;25.36;41.96
59240;BME280;45010;53.640;10.578;2022-09-09T03:24:08;100193.44;;;25.25;41.97
59240;BME280;45010;53.640;10.578;2022-09-09T03:27:09;100200.22;;;25.33;42.22
59240;BME280;45010;53.640;10.578;2022-09-09T03:30:10;100203.94;;;25.32;42.10
59240;BME280;45010;53.640;10.578;2022-09-09T03:33:10;100191.84;;;25.24;41.93
59240;BME280;45010;53.640;10.578;2022-09-09T03:36:11;100210.59;;;25.29;42.12
59240;BME280;45010;53.640;10.578;2022-09-09T03:39:12;100219.66;;;25.28;42.18
59240;BME280;45010;53.640;10.578;2022-09-09T03:42:13;100192.06;;;25.17;42.04
59240;BME280;45010;53.640;10.578;2022-09-09T03:45:14;100214.81;;;25.25;42.20
59240;BME280;45010;53.640;10.578;2022-09-09T03:48:16;100190.09;;;25.12;42.07
59240;BME280;45010;53.640;10.578;2022-09-09T03:51:16;100208.91;;;25.23;42.00
59240;BME280;45010;53.640;10.578;2022-09-09T03:54:16;100215.31;;;25.22;42.05
59240;BME280;45010;53.640;10.578;2022-09-09T03:57:17;100214.50;;;25.21;42.13
59240;BME280;45010;53.640;10.578;2022-09-09T04:00:17;100209.41;;;25.20;42.20
59240;BME280;45010;53.640;10.578;2022-09-09T04:03:18;100218.47;;;25.19;42.21
59240;BME280;45010;53.640;10.578;2022-09-09T04:06:18;100214.38;;;25.11;42.31
59240;BME280;45010;53.640;10.578;2022-09-09T04:09:21;100216.00;;;25.12;42.05
59240;BME280;45010;53.640;10.578;2022-09-09T04:12:21;100210.97;;;25.16;42.05
59240;BME280;45010;53.640;10.578;2022-09-09T04:15:22;100186.44;;;24.96;42.34
59240;BME280;45010;53.640;10.578;2022-09-09T04:18:23;100204.38;;;25.01;42.43
59240;BME280;45010;53.640;10.578;2022-09-09T04:21:23;100220.50;;;25.11;42.27
59240;BME280;45010;53.640;10.578;2022-09-09T04:24:24;100222.13;;;25.12;42.25
59240;BME280;45010;53.640;10.578;2022-09-09T04:27:24;100221.34;;;25.12;42.31
59240;BME280;45010;53.640;10.578;2022-09-09T04:30:25;100218.09;;;25.10;42.28
59240;BME280;45010;53.640;10.578;2022-09-09T04:33:27;100225.28;;;25.09;42.29
59240;BME280;45010;53.640;10.578;2022-09-09T04:36:27;100233.47;;;25.03;42.45
59240;BME280;45010;53.640;10.578;2022-09-09T04:39:28;100246.06;;;25.07;42.42
59240;BME280;45010;53.640;10.578;2022-09-09T04:42:28;100238.31;;;25.06;42.32
59240;BME280;45010;53.640;10.578;2022-09-09T04:45:29;100241.00;;;25.06;42.29
59240;BME280;45010;53.640;10.578;2022-09-09T04:48:29;100242.84;;;25.05;42.38
59240;BME280;45010;53.640;10.578;2022-09-09T04:51:31;100241.22;;;25.04;42.16
59240;BME280;45010;53.640;10.578;2022-09-09T04:54:31;100250.28;;;25.03;42.42
59240;BME280;45010;53.640;10.578;2022-09-09T04:57:32;100258.31;;;25.03;42.43
59240;BME280;45010;53.640;10.578;2022-09-09T05:00:34;100248.69;;;25.02;42.43
59240;BME280;45010;53.640;10.578;2022-09-09T05:03:35;100249.47;;;25.03;42.49
59240;BME280;45010;53.640;10.578;2022-09-09T05:06:36;100233.00;;;24.89;42.67
59240;BME280;45010;53.640;10.578;2022-09-09T05:09:37;100249.16;;;24.99;42.53
59240;BME280;45010;53.640;10.578;2022-09-09T05:12:37;100254.50;;;24.99;42.47
59240;BME280;45010;53.640;10.578;2022-09-09T05:15:37;100254.75;;;24.97;42.48
59240;BME280;45010;53.640;10.578;2022-09-09T05:18:39;100236.72;;;24.88;42.60
59240;BME280;45010;53.640;10.578;2022-09-09T05:21:39;100247.00;;;24.96;42.42
59240;BME280;45010;53.640;10.578;2022-09-09T05:24:39;100249.66;;;24.96;42.63
59240;BME280;45010;53.640;10.578;2022-09-09T05:27:40;100247.25;;;24.94;42.55
59240;BME280;45010;53.640;10.578;2022-09-09T05:30:40;100251.75;;;24.94;42.52
59240;BME280;45010;53.640;10.578;2022-09-09T05:33:42;100237.88;;;24.92;42.46
59240;BME280;45010;53.640;10.578;2022-09-09T05:36:43;100251.75;;;24.94;42.63
59240;BME280;45010;53.640;10.578;2022-09-09T05:39:43;100250.97;;;24.93;42.70
59240;BME280;45010;53.640;10.578;2022-09-09T05:42:44;100249.31;;;24.92;42.70
59240;BME280;45010;53.640;10.578;2022-09-09T05:45:44;100256.53;;;24.92;42.64
59240;BME280;45010;53.640;10.578;2022-09-09T05:48:47;100260.81;;;24.93;42.70
59240;BME280;45010;53.640;10.578;2022-09-09T05:51:48;100272.53;;;24.92;42.95
59240;BME280;45010;53.640;10.578;2022-09-09T05:54:48;100250.63;;;24.90;42.73
59240;BME280;45010;53.640;10.578;2022-09-09T05:57:49;100262.94;;;24.91;42.73
59240;BME280;45010;53.640;10.578;2022-09-09T06:00:49;100266.63;;;24.90;42.86
59240;BME280;45010;53.640;10.578;2022-09-09T06:03:50;100266.63;;;24.90;42.89
59240;BME280;45010;53.640;10.578;2022-09-09T06:06:51;100244.16;;;24.68;42.60
59240;BME280;45010;53.640;10.578;2022-09-09T06:09:52;100281.03;;;24.89;42.93
59240;BME280;45010;53.640;10.578;2022-09-09T06:12:53;100273.19;;;24.82;43.03
59240;BME280;45010;53.640;10.578;2022-09-09T06:15:53;100283.94;;;24.87;42.94
59240;BME280;45010;53.640;10.578;2022-09-09T06:18:55;100275.03;;;24.81;43.14
59240;BME280;45010;53.640;10.578;2022-09-09T06:21:56;100289.28;;;24.87;43.23
59240;BME280;45010;53.640;10.578;2022-09-09T06:24:56;100289.53;;;24.85;42.83
59240;BME280;45010;53.640;10.578;2022-09-09T06:27:56;100286.03;;;24.85;43.06
59240;BME280;45010;53.640;10.578;2022-09-09T06:31:02;100287.91;;;24.84;43.16
59240;BME280;45010;53.640;10.578;2022-09-09T06:34:05;100286.97;;;24.79;43.23
59240;BME280;45010;53.640;10.578;2022-09-09T06:37:06;100276.50;;;24.72;43.26
59240;BME280;45010;53.640;10.578;2022-09-09T06:40:08;100288.03;;;24.78;43.21
59240;BME280;45010;53.640;10.578;2022-09-09T06:43:09;100296.94;;;24.83;43.18
59240;BME280;45010;53.640;10.578;2022-09-09T06:46:12;100286.19;;;24.78;43.00
59240;BME280;45010;53.640;10.578;2022-09-09T06:49:13;100295.31;;;24.82;43.39
59240;BME280;45010;53.640;10.578;2022-09-09T06:52:13;100298.81;;;24.83;43.59
59240;BME280;45010;53.640;10.578;2022-09-09T06:55:13;100296.16;;;24.83;43.92
59240;BME280;45010;53.640;10.578;2022-09-09T06:58:15;100294.28;;;24.83;43.85
59240;BME280;45010;53.640;10.578;2022-09-09T07:01:18;100272.91;;;24.66;43.79
59240;BME280;45010;53.640;10.578;2022-09-09T07:04:19;100298.56;;;24.84;44.02
59240;BME280;45010;53.640;10.578;2022-09-09T07:07:19;100297.53;;;24.85;44.14
59240;BME280;45010;53.640;10.578;2022-09-09T07:10:20;100296.47;;;24.87;44.14
59240;BME280;45010;53.640;10.578;2022-09-09T07:13:24;100296.47;;;24.87;43.91
59240;BME280;45010;53.640;10.578;2022-09-09T07:16:26;100300.75;;;24.88;43.66
59240;BME280;45010;53.640;10.578;2022-09-09T07:19:27;100306.25;;;24.98;44.19
59240;BME280;45010;53.640;10.578;2022-09-09T07:22:28;100306.78;;;25.00;44.11
59240;BME280;45010;53.640;10.578;2022-09-09T07:25:28;100309.00;;;25.03;43.95
59240;BME280;45010;53.640;10.578;2022-09-09T07:28:30;100309.53;;;25.05;43.83
59240;BME280;45010;53.640;10.578;2022-09-09T07:31:33;100279.41;;;24.88;43.97
59240;BME280;45010;53.640;10.578;2022-09-09T07:34:34;100311.75;;;25.08;43.95
59240;BME280;45010;53.640;10.578;2022-09-09T07:37:36;100316.56;;;25.11;43.93
59240;BME280;45010;53.640;10.578;2022-09-09T07:40:37;100314.22;;;25.15;44.03
59240;BME280;45010;53.640;10.578;2022-09-09T07:43:43;100302.16;;;25.12;43.97
59240;BME280;45010;53.640;10.578;2022-09-09T07:46:44;100287.66;;;25.03;43.84
59240;BME280;45010;53.640;10.578;2022-09-09T07:49:45;100318.88;;;25.25;43.69
59240;BME280;45010;53.640;10.578;2022-09-09T07:52:46;100321.06;;;25.28;43.83
59240;BME280;45010;53.640;10.578;2022-09-09T07:55:46;100324.31;;;25.30;43.72
59240;BME280;45010;53.640;10.578;2022-09-09T07:58:48;100318.41;;;25.28;43.82
59240;BME280;45010;53.640;10.578;2022-09-09T08:01:50;100334.81;;;25.37;43.87
59240;BME280;45010;53.640;10.578;2022-09-09T08:04:54;100340.47;;;25.41;43.57
59240;BME280;45010;53.640;10.578;2022-09-09T08:07:54;100337.56;;;25.42;43.68
59240;BME280;45010;53.640;10.578;2022-09-09T08:11:07;100340.53;;;25.46;43.71
59240;BME280;45010;53.640;10.578;2022-09-09T08:14:10;100341.91;;;25.48;43.52
59240;BME280;45010;53.640;10.578;2022-09-09T08:17:11;100338.97;;;25.50;43.71
59240;BME280;45010;53.640;10.578;2022-09-09T08:20:11;100347.56;;;25.52;43.28
59240;BME280;45010;53.640;10.578;2022-09-09T08:23:11;100343.88;;;25.53;43.52
59240;BME280;45010;53.640;10.578;2022-09-09T08:26:15;100335.75;;;25.48;43.28
59240;BME280;45010;53.640;10.578;2022-09-09T08:29:16;100341.75;;;25.55;43.26
59240;BME280;45010;53.640;10.578;2022-09-09T08:32:16;100335.75;;;25.48;43.10
59240;BME280;45010;53.640;10.578;2022-09-09T08:35:17;100346.03;;;25.56;43.25
59240;BME280;45010;53.640;10.578;2022-09-09T08:38:17;100347.66;;;25.57;43.20
59240;BME280;45010;53.640;10.578;2022-09-09T08:41:26;100345.78;;;25.58;42.99
59240;BME280;45010;53.640;10.578;2022-09-09T08:44:53;100342.06;;;25.59;42.92
59240;BME280;45010;53.640;10.578;2022-09-09T08:50:58;100344.47;;;25.60;42.93
59240;BME280;45010;53.640;10.578;2022-09-09T08:54:03;100352.72;;;25.59;43.03
59240;BME280;45010;53.640;10.578;2022-09-09T08:57:12;100353.56;;;25.59;43.09
59240;BME280;45010;53.640;10.578;2022-09-09T09:00:14;100365.84;;;25.60;43.02
59240;BME280;45010;53.640;10.578;2022-09-09T09:03:33;100358.91;;;25.59;43.02
59240;BME280;45010;53.640;10.578;2022-09-09T09:10:15;100357.75;;;25.55;43.66
59240;BME280;45010;53.640;10.578;2022-09-09T09:13:20;100350.34;;;25.57;43.24
59240;BME280;45010;53.640;10.578;2022-09-09T09:16:34;100372.06;;;25.66;43.69
59240;BME280;45010;53.640;10.578;2022-09-09T09:19:39;100366.47;;;25.68;43.37
59240;BME280;45010;53.640;10.578;2022-09-09T09:22:51;100360.03;;;25.63;43.39
59240;BME280;45010;53.640;10.578;2022-09-09T09:25:58;100362.19;;;25.67;43.39
59240;BME280;45010;53.640;10.578;2022-09-09T09:29:09;100370.81;;;25.74;43.52
59240;BME280;45010;53.640;10.578;2022-09-09T09:32:14;100367.59;;;25.72;43.59
59240;BME280;45010;53.640;10.578;2022-09-09T09:35:16;100370.88;;;25.79;43.28
59240;BME280;45010;53.640;10.578;2022-09-09T09:38:24;100360.72;;;25.76;43.30
59240;BME280;45010;53.640;10.578;2022-09-09T09:41:36;100359.66;;;25.77;43.46
59240;BME280;45010;53.640;10.578;2022-09-09T09:44:38;100370.97;;;25.84;43.25
59240;BME280;45010;53.640;10.578;2022-09-09T09:47:38;100370.97;;;25.84;43.45
59240;BME280;45010;53.640;10.578;2022-09-09T09:51:10;100362.41;;;25.82;43.38
59240;BME280;45010;53.640;10.578;2022-09-09T09:57:16;100340.88;;;25.72;43.29
59240;BME280;45010;53.640;10.578;2022-09-09T10:00:18;100355.44;;;25.81;43.04
59240;BME280;45010;53.640;10.578;2022-09-09T10:03:26;100367.53;;;25.89;43.07
59240;BME280;45010;53.640;10.578;2022-09-09T10:06:37;100368.97;;;25.97;43.36
59240;BME280;45010;53.640;10.578;2022-09-09T10:09:38;100382.91;;;25.99;43.53
59240;BME280;45010;53.640;10.578;2022-09-09T10:12:44;100378.91;;;26.01;43.57
59240;BME280;45010;53.640;10.578;2022-09-09T10:19:15;100383.50;;;26.06;43.51
59240;BME280;45010;53.640;10.578;2022-09-09T10:22:28;100383.50;;;26.06;43.63
59240;BME280;45010;53.640;10.578;2022-09-09T10:32:40;100373.91;;;26.10;43.86
59240;BME280;45010;53.640;10.578;2022-09-09T10:36:06;100371.25;;;26.10;43.39
59240;BME280;45010;53.640;10.578;2022-09-09T10:42:31;100364.59;;;26.13;43.29
59240;BME280;45010;53.640;10.578;2022-09-09T10:45:39;100362.75;;;26.13;43.63
59240;BME280;45010;53.640;10.578;2022-09-09T10:48:59;100358.94;;;26.09;43.70
59240;BME280;45010;53.640;10.578;2022-09-09T10:52:14;100337.72;;;25.97;43.38
59240;BME280;45010;53.640;10.578;2022-09-09T10:55:20;100358.72;;;26.11;43.30
59240;BME280;45010;53.640;10.578;2022-09-09T10:58:29;100372.91;;;26.16;43.46
59240;BME280;45010;53.640;10.578;2022-09-09T11:01:40;100355.78;;;26.12;43.28
59240;BME280;45010;53.640;10.578;2022-09-09T11:08:19;100365.47;;;26.18;43.46
59240;BME280;45010;53.640;10.578;2022-09-09T11:11:27;100361.25;;;26.23;43.72
59240;BME280;45010;53.640;10.578;2022-09-09T11:14:37;100357.56;;;26.24;43.62
59240;BME280;45010;53.640;10.578;2022-09-09T11:17:54;100351.88;;;26.20;43.52
59240;BME280;45010;53.640;10.578;2022-09-09T11:21:00;100353.56;;;26.26;43.56
59240;BME280;45010;53.640;10.578;2022-09-09T11:24:08;100358.63;;;26.28;43.55
59240;BME280;45010;53.640;10.578;2022-09-09T11:27:14;100360.28;;;26.29;43.44
59240;BME280;45010;53.640;10.578;2022-09-09T11:34:16;100358.63;;;26.28;43.40
59240;BME280;45010;53.640;10.578;2022-09-09T11:40:27;100368.84;;;26.31;43.39
59240;BME280;45010;53.640;10.578;2022-09-09T11:43:34;100369.38;;;26.33;43.72
59240;BME280;45010;53.640;10.578;2022-09-09T11:46:40;100370.44;;;26.32;43.19
59240;BME280;45010;53.640;10.578;2022-09-09T11:49:42;100362.63;;;26.25;43.11
59240;BME280;45010;53.640;10.578;2022-09-09T11:52:44;100377.41;;;26.33;43.25
59240;BME280;45010;53.640;10.578;2022-09-09T11:56:00;100367.78;;;26.32;42.89
59240;BME280;45010;53.640;10.578;2022-09-09T11:59:16;100366.66;;;26.28;43.25
59240;BME280;45010;53.640;10.578;2022-09-09T12:02:24;100366.72;;;26.33;42.91
59240;BME280;45010;53.640;10.578;2022-09-09T12:05:42;100338.44;;;26.15;43.00
59240;BME280;45010;53.640;10.578;2022-09-09T12:08:48;100356.53;;;26.30;43.39
59240;BME280;45010;53.640;10.578;2022-09-09T12:11:51;100371.06;;;26.39;42.90
59240;BME280;45010;53.640;10.578;2022-09-09T12:14:59;100366.28;;;26.41;43.07
59240;BME280;45010;53.640;10.578;2022-09-09T12:18:00;100372.19;;;26.43;43.32
59240;BME280;45010;53.640;10.578;2022-09-09T12:28:17;100374.59;;;26.45;42.96
59240;BME280;45010;53.640;10.578;2022-09-09T12:31:26;100357.13;;;26.37;43.03
59240;BME280;45010;53.640;10.578;2022-09-09T12:34:42;100363.59;;;26.41;42.69
59240;BME280;45010;53.640;10.578;2022-09-09T12:37:52;100375.97;;;26.48;43.16
59240;BME280;45010;53.640;10.578;2022-09-09T12:40:58;100359.88;;;26.42;42.79
59240;BME280;45010;53.640;10.578;2022-09-09T12:44:09;100369.56;;;26.49;43.02
59240;BME280;45010;53.640;10.578;2022-09-09T12:47:12;100357.78;;;26.50;42.71
59240;BME280;45010;53.640;10.578;2022-09-09T12:50:27;100362.06;;;26.51;43.11
59240;BME280;45010;53.640;10.578;2022-09-09T12:53:32;100358.56;;;26.45;43.26
59240;BME280;45010;53.640;10.578;2022-09-09T12:56:35;100376.28;;;26.51;42.95
59240;BME280;45010;53.640;10.578;2022-09-09T12:59:41;100373.59;;;26.51;43.20
59240;BME280;45010;53.640;10.578;2022-09-09T13:02:51;100362.03;;;26.45;42.90
59240;BME280;45010;53.640;10.578;2022-09-09T13:05:53;100372.78;;;26.51;43.08
59240;BME280;45010;53.640;10.578;2022-09-09T13:08:55;100373.84;;;26.50;43.28
59240;BME280;45010;53.640;10.578;2022-09-09T13:11:56;100365.81;;;26.50;43.00
59240;BME280;45010;53.640;10.578;2022-09-09T13:14:58;100363.97;;;26.50;43.30
59240;BME280;45010;53.640;10.578;2022-09-09T13:18:03;100368.97;;;26.46;43.58
59240;BME280;45010;53.640;10.578;2022-09-09T13:21:06;100378.94;;;26.51;43.52
59240;BME280;45010;53.640;10.578;2022-09-09T13:27:28;100378.66;;;26.53;43.34
59240;BME280;45010;53.640;10.578;2022-09-09T13:30:32;100374.91;;;26.49;43.51
59240;BME280;45010;53.640;10.578;2022-09-09T13:33:37;100374.91;;;26.49;43.40
59240;BME280;45010;53.640;10.578;2022-09-09T13:36:37;100390.72;;;26.55;43.12
59240;BME280;45010;53.640;10.578;2022-09-09T13:39:51;100367.31;;;26.40;43.24
59240;BME280;45010;53.640;10.578;2022-09-09T13:42:55;100393.16;;;26.57;43.13
59240;BME280;45010;53.640;10.578;2022-09-09T13:45:59;100372.53;;;26.52;43.03
59240;BME280;45010;53.640;10.578;2022-09-09T13:49:19;100377.94;;;26.57;43.22
59240;BME280;45010;53.640;10.578;2022-09-09T13:52:20;100371.75;;;26.57;43.08
59240;BME280;45010;53.640;10.578;2022-09-09T13:55:23;100359.88;;;26.42;43.43
59240;BME280;45010;53.640;10.578;2022-09-09T13:58:23;100384.88;;;26.58;43.35
59240;BME280;45010;53.640;10.578;2022-09-09T14:01:25;100389.41;;;26.58;43.41
59240;BME280;45010;53.640;10.578;2022-09-09T14:04:25;100394.75;;;26.58;43.22
59240;BME280;45010;53.640;10.578;2022-09-09T14:07:26;100384.06;;;26.58;42.94
59240;BME280;45010;53.640;10.578;2022-09-09T14:10:26;100376.03;;;26.58;43.31
59240;BME280;45010;53.640;10.578;2022-09-09T14:13:27;100378.72;;;26.58;42.73
59240;BME280;45010;53.640;10.578;2022-09-09T14:16:28;100375.00;;;26.59;43.49
59240;BME280;45010;53.640;10.578;2022-09-09T14:19:28;100369.94;;;26.63;43.01
59240;BME280;45010;53.640;10.578;2022-09-09T14:22:28;100376.09;;;26.63;43.19
59240;BME280;45010;53.640;10.578;2022-09-09T14:25:28;100369.66;;;26.59;43.02
59240;BME280;45010;53.640;10.578;2022-09-09T14:28:29;100383.06;;;26.64;43.40
59240;BME280;45010;53.640;10.578;2022-09-09T14:31:29;100388.41;;;26.64;43.56
59240;BME280;45010;53.640;10.578;2022-09-09T14:34:29;100393.75;;;26.64;43.15
59240;BME280;45010;53.640;10.578;2022-09-09T14:37:32;100397.50;;;26.63;42.94
59240;BME280;45010;53.640;10.578;2022-09-09T14:40:37;100392.16;;;26.63;43.06
59240;BME280;45010;53.640;10.578;2022-09-09T14:43:38;100394.28;;;26.61;43.10
59240;BME280;45010;53.640;10.578;2022-09-09T14:46:38;100395.88;;;26.62;43.12
59240;BME280;45010;53.640;10.578;2022-09-09T14:49:39;100399.63;;;26.61;43.00
59240;BME280;45010;53.640;10.578;2022-09-09T14:52:39;100400.94;;;26.58;42.94
59240;BME280;45010;53.640;10.578;2022-09-09T14:55:39;100405.47;;;26.58;43.12
59240;BME280;45010;53.640;10.578;2022-09-09T14:58:40;100401.13;;;26.52;43.04
59240;BME280;45010;53.640;10.578;2022-09-09T15:01:40;100410.81;;;26.58;43.38
59240;BME280;45010;53.640;10.578;2022-09-09T15:04:41;100402.78;;;26.58;43.23
59240;BME280;45010;53.640;10.578;2022-09-09T15:07:41;100401.75;;;26.59;43.48
59240;BME280;45010;53.640;10.578;2022-09-09T15:10:42;100398.00;;;26.60;43.22
59240;BME280;45010;53.640;10.578;2022-09-09T15:13:44;100399.63;;;26.61;43.27
59240;BME280;45010;53.640;10.578;2022-09-09T15:16:45;100400.16;;;26.63;43.65
59240;BME280;45010;53.640;10.578;2022-09-09T15:19:45;100384.38;;;26.62;43.49
59240;BME280;45010;53.640;10.578;2022-09-09T15:22:45;100380.38;;;26.64;43.04
59240;BME280;45010;53.640;10.578;2022-09-09T15:25:55;100380.13;;;26.66;43.32
59240;BME280;45010;53.640;10.578;2022-09-09T15:28:56;100371.28;;;26.60;42.95
59240;BME280;45010;53.640;10.578;2022-09-09T15:31:59;100370.25;;;26.66;43.37
59240;BME280;45010;53.640;10.578;2022-09-09T15:34:59;100348.84;;;26.66;42.98
59240;BME280;45010;53.640;10.578;2022-09-09T15:38:02;100343.50;;;26.66;43.07
59240;BME280;45010;53.640;10.578;2022-09-09T15:41:04;100345.59;;;26.64;43.28
59240;BME280;45010;53.640;10.578;2022-09-09T15:44:05;100316.63;;;26.51;43.23
59240;BME280;45010;53.640;10.578;2022-09-09T15:47:06;100343.50;;;26.66;43.26
59240;BME280;45010;53.640;10.578;2022-09-09T15:50:06;100356.59;;;26.68;42.97
59240;BME280;45010;53.640;10.578;2022-09-09T15:53:07;100346.72;;;26.68;43.28
59240;BME280;45010;53.640;10.578;2022-09-09T15:56:07;100348.31;;;26.69;43.19
59240;BME280;45010;53.640;10.578;2022-09-09T15:59:08;100338.66;;;26.63;42.75
59240;BME280;45010;53.640;10.578;2022-09-09T16:02:09;100329.56;;;26.64;43.07
59240;BME280;45010;53.640;10.578;2022-09-09T16:05:09;100333.31;;;26.63;42.87
59240;BME280;45010;53.640;10.578;2022-09-09T16:08:09;100336.56;;;26.70;42.68
59240;BME280;45010;53.640;10.578;2022-09-09T16:11:15;100328.53;;;26.70;43.11
59240;BME280;45010;53.640;10.578;2022-09-09T16:14:16;100332.56;;;26.73;43.10
59240;BME280;45010;53.640;10.578;2022-09-09T16:17:17;100324.22;;;26.64;43.15
59240;BME280;45010;53.640;10.578;2022-09-09T16:20:20;100332.88;;;26.77;42.90
59240;BME280;45010;53.640;10.578;2022-09-09T16:23:20;100338.22;;;26.77;42.94
59240;BME280;45010;53.640;10.578;2022-09-09T16:26:21;100342.78;;;26.76;43.24
59240;BME280;45010;53.640;10.578;2022-09-09T16:29:22;100325.56;;;26.67;43.07
59240;BME280;45010;53.640;10.578;2022-09-09T16:32:23;100310.00;;;26.58;43.01
59240;BME280;45010;53.640;10.578;2022-09-09T16:35:23;100334.19;;;26.74;43.04
59240;BME280;45010;53.640;10.578;2022-09-09T16:38:23;100331.78;;;26.72;43.35
59240;BME280;45010;53.640;10.578;2022-09-09T16:41:25;100331.78;;;26.72;43.35
59240;BME280;45010;53.640;10.578;2022-09-09T16:44:27;100345.41;;;26.71;43.28
59240;BME280;45010;53.640;10.578;2022-09-09T16:47:27;100341.38;;;26.68;43.50
59240;BME280;45010;53.640;10.578;2022-09-09T16:50:30;100337.03;;;26.62;43.27
59240;BME280;45010;53.640;10.578;2022-09-09T16:53:32;100338.09;;;26.61;43.57
59240;BME280;45010;53.640;10.578;2022-09-09T16:56:34;100352.59;;;26.65;43.35
59240;BME280;45010;53.640;10.578;2022-09-09T16:59:36;100344.00;;;26.63;43.38